sensor_id;sensor_type;location;lat;lon;timestamp;temperature;humidity
32612;DHT22;19030;49.478;8.986;2022-10-31T00:01:55;10.00;99.90
32612;DHT22;19030;49.478;8.986;2022-10-31T00:03:56;10.00;99.90
32612;DHT22;19030;49.478;8.986;2022-10-31T00:05:56;9.90;99.90
32612;DHT22;19030;49.478;8.986;2022-10-31T00:07:57;9.90;99.90
32612;DHT22;19030;49.478;8.986;2022-10-31T00:09:58;9.90;99.90
32612;DHT22;19030;49.478;8.986;2022-10-31T00:11:58;9.90;99.90
32612;DHT22;19030;49.478;8.986;2022-10-31T00:13:59;9.90;99.90
32612;DHT22;19030;49.478;8.986;2022-10-31T00:15:59;9.90;99.90
32612;DHT22;19030;49.478;8.986;2022-10-31T00:18:01;9.90;99.90
32612;DHT22;19030;49.478;8.986;2022-10-31T00:20:01;9.90;99.90
32612;DHT22;19030;49.478;8.986;2022-10-31T00:22:02;9.90;99.90
32612;DHT22;19030;49.478;8.986;2022-10-31T00:24:03;9.90;99.90
32612;DHT22;19030;49.478;8.986;2022-10-31T00:26:04;9.80;99.90
32612;DHT22;19030;49.478;8.986;2022-10-31T00:28:06;9.80;99.90
32612;DHT22;19030;49.478;8.986;2022-10-31T00:30:08;9.80;99.90
32612;DHT22;19030;49.478;8.986;2022-10-31T00:32:08;9.80;99.90
32612;DHT22;19030;49.478;8.986;2022-10-31T00:34:09;9.80;99.90
32612;DHT22;19030;49.478;8.986;2022-10-31T00:36:15;9.80;99.90
32612;DHT22;19030;49.478;8.986;2022-10-31T00:38:16;9.80;99.90
32612;DHT22;19030;49.478;8.986;2022-10-31T00:40:16;9.70;99.90
32612;DHT22;19030;49.478;8.986;2022-10-31T00:42:17;9.70;99.90
32612;DHT22;19030;49.478;8.986;2022-10-31T00:44:19;9.70;99.90
32612;DHT22;19030;49.478;8.986;2022-10-31T00:46:20;9.70;99.90
32612;DHT22;19030;49.478;8.986;2022-10-31T00:48:21;9.60;99.90
32612;DHT22;19030;49.478;8.986;2022-10-31T00:50:23;9.60;99.90
32612;DHT22;19030;49.478;8.986;2022-10-31T00:52:23;9.60;99.90
32612;DHT22;19030;49.478;8.986;2022-10-31T00:54:24;9.60;99.90
32612;DHT22;19030;49.478;8.986;2022-10-31T00:56:24;9.50;99.90
32612;DHT22;19030;49.478;8.986;2022-10-31T00:58:25;9.50;99.90
32612;DHT22;19030;49.478;8.986;2022-10-31T01:00:27;9.50;99.90
32612;DHT22;19030;49.478;8.986;2022-10-31T01:02:27;9.50;99.90
32612;DHT22;19030;49.478;8.986;2022-10-31T01:04:28;9.50;99.90
32612;DHT22;19030;49.478;8.986;2022-10-31T01:06:31;9.50;99.90
32612;DHT22;19030;49.478;8.986;2022-10-31T01:08:31;9.50;99.90
32612;DHT22;19030;49.478;8.986;2022-10-31T01:10:32;9.40;99.90
32612;DHT22;19030;49.478;8.986;2022-10-31T01:12:37;9.40;99.90
32612;DHT22;19030;49.478;8.986;2022-10-31T01:14:38;9.40;99.90
32612;DHT22;19030;49.478;8.986;2022-10-31T01:16:38;9.40;99.90
32612;DHT22;19030;49.478;8.986;2022-10-31T01:18:39;9.40;99.90
32612;DHT22;19030;49.478;8.986;2022-10-31T01:20:39;9.40;99.90
32612;DHT22;19030;49.478;8.986;2022-10-31T01:22:40;9.40;99.90
32612;DHT22;19030;49.478;8.986;2022-10-31T01:24:41;9.30;99.90
32612;DHT22;19030;49.478;8.986;2022-10-31T01:26:41;9.30;99.90
32612;DHT22;19030;49.478;8.986;2022-10-31T01:28:50;9.30;99.90
32612;DHT22;19030;49.478;8.986;2022-10-31T01:30:51;9.30;99.90
32612;DHT22;19030;49.478;8.986;2022-10-31T01:32:52;9.30;99.90
32612;DHT22;19030;49.478;8.986;2022-10-31T01:34:52;9.30;99.90
32612;DHT22;19030;49.478;8.986;2022-10-31T01:36:53;9.20;99.90
32612;DHT22;19030;49.478;8.986;2022-10-31T01:38:56;9.20;99.90
32612;DHT22;19030;49.478;8.986;2022-10-31T01:40:57;9.20;99.90
32612;DHT22;19030;49.478;8.986;2022-10-31T01:42:58;9.20;99.90
32612;DHT22;19030;49.478;8.986;2022-10-31T01:45:00;9.20;99.90
32612;DHT22;19030;49.478;8.986;2022-10-31T01:47:08;9.20;99.90
32612;DHT22;19030;49.478;8.986;2022-10-31T01:49:17;9.10;99.90
32612;DHT22;19030;49.478;8.986;2022-10-31T01:51:19;9.20;99.90
32612;DHT22;19030;49.478;8.986;2022-10-31T01:53:21;9.10;99.90
32612;DHT22;19030;49.478;8.986;2022-10-31T01:55:31;9.20;99.90
32612;DHT22;19030;49.478;8.986;2022-10-31T01:57:34;9.20;99.90
32612;DHT22;19030;49.478;8.986;2022-10-31T01:59:40;9.10;99.90
32612;DHT22;19030;49.478;8.986;2022-10-31T02:01:42;9.10;99.90
32612;DHT22;19030;49.478;8.986;2022-10-31T02:03:44;9.10;99.90
32612;DHT22;19030;49.478;8.986;2022-10-31T02:05:47;9.10;99.90
32612;DHT22;19030;49.478;8.986;2022-10-31T02:07:58;9.10;99.90
32612;DHT22;19030;49.478;8.986;2022-10-31T02:10:03;9.00;99.90
32612;DHT22;19030;49.478;8.986;2022-10-31T02:12:05;9.10;99.90
32612;DHT22;19030;49.478;8.986;2022-10-31T02:14:07;9.00;99.90
32612;DHT22;19030;49.478;8.986;2022-10-31T02:16:09;9.00;99.90
32612;DHT22;19030;49.478;8.986;2022-10-31T02:18:10;9.00;99.90
32612;DHT22;19030;49.478;8.986;2022-10-31T02:20:17;8.90;99.90
32612;DHT22;19030;49.478;8.986;2022-10-31T02:35:47;8.90;99.90
32612;DHT22;19030;49.478;8.986;2022-10-31T02:37:56;8.90;99.90
32612;DHT22;19030;49.478;8.986;2022-10-31T02:43:05;8.80;99.90
32612;DHT22;19030;49.478;8.986;2022-10-31T02:45:14;8.80;99.90
32612;DHT22;19030;49.478;8.986;2022-10-31T02:47:27;8.80;99.90
32612;DHT22;19030;49.478;8.986;2022-10-31T02:51:43;8.80;99.90
32612;DHT22;19030;49.478;8.986;2022-10-31T02:53:45;8.80;99.90
32612;DHT22;19030;49.478;8.986;2022-10-31T02:55:54;8.80;99.90
32612;DHT22;19030;49.478;8.986;2022-10-31T02:58:07;8.80;99.90
32612;DHT22;19030;49.478;8.986;2022-10-31T03:00:10;8.80;99.90
32612;DHT22;19030;49.478;8.986;2022-10-31T03:04:49;8.80;99.90
32612;DHT22;19030;49.478;8.986;2022-10-31T03:07:02;8.80;99.90
32612;DHT22;19030;49.478;8.986;2022-10-31T03:09:24;8.70;99.90
32612;DHT22;19030;49.478;8.986;2022-10-31T03:11:42;8.70;99.90
32612;DHT22;19030;49.478;8.986;2022-10-31T03:19:09;8.70;99.90
32612;DHT22;19030;49.478;8.986;2022-10-31T03:21:12;8.70;99.90
32612;DHT22;19030;49.478;8.986;2022-10-31T03:23:16;8.70;99.90
32612;DHT22;19030;49.478;8.986;2022-10-31T03:25:23;8.70;99.90
32612;DHT22;19030;49.478;8.986;2022-10-31T03:27:32;8.70;99.90
32612;DHT22;19030;49.478;8.986;2022-10-31T03:29:35;8.70;99.90
32612;DHT22;19030;49.478;8.986;2022-10-31T03:31:44;8.70;99.90
32612;DHT22;19030;49.478;8.986;2022-10-31T03:33:49;8.70;99.90
32612;DHT22;19030;49.478;8.986;2022-10-31T03:35:52;8.70;99.90
32612;DHT22;19030;49.478;8.986;2022-10-31T03:37:56;8.70;99.90
32612;DHT22;19030;49.478;8.986;2022-10-31T03:40:01;8.60;99.90
32612;DHT22;19030;49.478;8.986;2022-10-31T03:42:11;8.60;99.90
32612;DHT22;19030;49.478;8.986;2022-10-31T03:44:17;8.60;99.90
32612;DHT22;19030;49.478;8.986;2022-10-31T03:46:24;8.60;99.90
32612;DHT22;19030;49.478;8.986;2022-10-31T03:48:28;8.60;99.90
32612;DHT22;19030;49.478;8.986;2022-10-31T03:50:38;8.60;99.90
32612;DHT22;19030;49.478;8.986;2022-10-31T03:52:41;8.60;99.90
32612;DHT22;19030;49.478;8.986;2022-10-31T03:54:44;8.60;99.90
32612;DHT22;19030;49.478;8.986;2022-10-31T03:56:53;8.60;99.90
32612;DHT22;19030;49.478;8.986;2022-10-31T03:59:09;8.60;99.90
32612;DHT22;19030;49.478;8.986;2022-10-31T04:01:15;8.60;99.90
32612;DHT22;19030;49.478;8.986;2022-10-31T04:03:26;8.60;99.90
32612;DHT22;19030;49.478;8.986;2022-10-31T04:05:30;8.50;99.90
32612;DHT22;19030;49.478;8.986;2022-10-31T04:07:37;8.50;99.90
32612;DHT22;19030;49.478;8.986;2022-10-31T04:09:44;8.50;99.90
32612;DHT22;19030;49.478;8.986;2022-10-31T04:11:50;8.50;99.90
32612;DHT22;19030;49.478;8.986;2022-10-31T04:14:31;8.50;99.90
32612;DHT22;19030;49.478;8.986;2022-10-31T04:16:33;8.50;99.90
32612;DHT22;19030;49.478;8.986;2022-10-31T04:18:33;8.40;99.90
32612;DHT22;19030;49.478;8.986;2022-10-31T04:20:37;8.40;99.90
32612;DHT22;19030;49.478;8.986;2022-10-31T04:22:37;8.40;99.90
32612;DHT22;19030;49.478;8.986;2022-10-31T04:24:40;8.40;99.90
32612;DHT22;19030;49.478;8.986;2022-10-31T04:26:41;8.40;99.90
32612;DHT22;19030;49.478;8.986;2022-10-31T04:28:42;8.40;99.90
32612;DHT22;19030;49.478;8.986;2022-10-31T04:30:43;8.40;99.90
32612;DHT22;19030;49.478;8.986;2022-10-31T04:32:43;8.30;99.90
32612;DHT22;19030;49.478;8.986;2022-10-31T04:34:44;8.30;99.90
32612;DHT22;19030;49.478;8.986;2022-10-31T04:36:45;8.30;99.90
32612;DHT22;19030;49.478;8.986;2022-10-31T04:38:48;8.30;99.90
32612;DHT22;19030;49.478;8.986;2022-10-31T04:41:04;8.30;99.90
32612;DHT22;19030;49.478;8.986;2022-10-31T04:43:04;8.20;99.90
32612;DHT22;19030;49.478;8.986;2022-10-31T04:45:06;8.20;99.90
32612;DHT22;19030;49.478;8.986;2022-10-31T04:47:08;8.20;99.90
32612;DHT22;19030;49.478;8.986;2022-10-31T04:49:08;8.20;99.90
32612;DHT22;19030;49.478;8.986;2022-10-31T04:51:09;8.20;99.90
32612;DHT22;19030;49.478;8.986;2022-10-31T04:53:10;8.20;99.90
32612;DHT22;19030;49.478;8.986;2022-10-31T04:55:27;8.10;99.90
32612;DHT22;19030;49.478;8.986;2022-10-31T04:57:49;8.10;99.90
32612;DHT22;19030;49.478;8.986;2022-10-31T04:59:51;8.10;99.90
32612;DHT22;19030;49.478;8.986;2022-10-31T05:01:51;8.10;99.90
32612;DHT22;19030;49.478;8.986;2022-10-31T05:03:59;8.10;99.90
32612;DHT22;19030;49.478;8.986;2022-10-31T05:06:00;8.10;99.90
32612;DHT22;19030;49.478;8.986;2022-10-31T05:08:01;8.10;99.90
32612;DHT22;19030;49.478;8.986;2022-10-31T05:10:04;8.00;99.90
32612;DHT22;19030;49.478;8.986;2022-10-31T05:12:06;8.00;99.90
32612;DHT22;19030;49.478;8.986;2022-10-31T05:14:42;8.00;99.90
32612;DHT22;19030;49.478;8.986;2022-10-31T05:17:01;8.00;99.90
32612;DHT22;19030;49.478;8.986;2022-10-31T05:19:20;8.00;99.90
32612;DHT22;19030;49.478;8.986;2022-10-31T05:21:41;8.00;99.90
32612;DHT22;19030;49.478;8.986;2022-10-31T05:23:42;7.90;99.90
32612;DHT22;19030;49.478;8.986;2022-10-31T05:25:43;7.90;99.90
32612;DHT22;19030;49.478;8.986;2022-10-31T05:27:49;7.90;99.90
32612;DHT22;19030;49.478;8.986;2022-10-31T05:29:51;7.90;99.90
32612;DHT22;19030;49.478;8.986;2022-10-31T05:31:51;7.90;99.90
32612;DHT22;19030;49.478;8.986;2022-10-31T05:34:12;7.90;99.90
32612;DHT22;19030;49.478;8.986;2022-10-31T05:36:40;7.90;99.90
32612;DHT22;19030;49.478;8.986;2022-10-31T05:38:49;7.90;99.90
32612;DHT22;19030;49.478;8.986;2022-10-31T05:41:03;7.90;99.90
32612;DHT22;19030;49.478;8.986;2022-10-31T05:43:06;7.90;99.90
32612;DHT22;19030;49.478;8.986;2022-10-31T05:45:08;7.90;99.90
32612;DHT22;19030;49.478;8.986;2022-10-31T05:47:20;7.90;99.90
32612;DHT22;19030;49.478;8.986;2022-10-31T05:49:44;7.90;99.90
32612;DHT22;19030;49.478;8.986;2022-10-31T05:52:05;7.80;99.90
32612;DHT22;19030;49.478;8.986;2022-10-31T05:54:13;7.80;99.90
32612;DHT22;19030;49.478;8.986;2022-10-31T05:56:14;7.80;99.90
32612;DHT22;19030;49.478;8.986;2022-10-31T05:58:15;7.80;99.90
32612;DHT22;19030;49.478;8.986;2022-10-31T06:00:24;7.80;99.90
32612;DHT22;19030;49.478;8.986;2022-10-31T06:02:25;7.80;99.90
32612;DHT22;19030;49.478;8.986;2022-10-31T06:04:53;7.80;99.90
32612;DHT22;19030;49.478;8.986;2022-10-31T06:06:54;7.80;99.90
32612;DHT22;19030;49.478;8.986;2022-10-31T06:08:54;7.80;99.90
32612;DHT22;19030;49.478;8.986;2022-10-31T06:10:56;7.80;99.90
32612;DHT22;19030;49.478;8.986;2022-10-31T06:13:17;7.80;99.90
32612;DHT22;19030;49.478;8.986;2022-10-31T06:15:22;7.80;99.90
32612;DHT22;19030;49.478;8.986;2022-10-31T06:17:23;7.80;99.90
32612;DHT22;19030;49.478;8.986;2022-10-31T06:19:23;7.80;99.90
32612;DHT22;19030;49.478;8.986;2022-10-31T06:21:25;7.80;99.90
32612;DHT22;19030;49.478;8.986;2022-10-31T06:23:25;7.80;99.90
32612;DHT22;19030;49.478;8.986;2022-10-31T06:25:43;7.80;99.90
32612;DHT22;19030;49.478;8.986;2022-10-31T06:27:46;7.80;99.90
32612;DHT22;19030;49.478;8.986;2022-10-31T06:29:48;7.80;99.90
32612;DHT22;19030;49.478;8.986;2022-10-31T06:32:10;7.90;99.90
32612;DHT22;19030;49.478;8.986;2022-10-31T06:34:15;7.90;99.90
32612;DHT22;19030;49.478;8.986;2022-10-31T06:36:15;7.90;99.90
32612;DHT22;19030;49.478;8.986;2022-10-31T06:38:16;8.00;99.90
32612;DHT22;19030;49.478;8.986;2022-10-31T06:40:17;8.00;99.90
32612;DHT22;19030;49.478;8.986;2022-10-31T06:42:37;8.10;99.90
32612;DHT22;19030;49.478;8.986;2022-10-31T06:44:38;8.20;99.90
32612;DHT22;19030;49.478;8.986;2022-10-31T06:46:57;8.20;99.90
32612;DHT22;19030;49.478;8.986;2022-10-31T06:49:10;8.30;99.90
32612;DHT22;19030;49.478;8.986;2022-10-31T06:51:24;8.40;99.90
32612;DHT22;19030;49.478;8.986;2022-10-31T06:53:26;8.40;99.90
32612;DHT22;19030;49.478;8.986;2022-10-31T06:55:27;8.50;99.90
32612;DHT22;19030;49.478;8.986;2022-10-31T06:57:28;8.60;99.90
32612;DHT22;19030;49.478;8.986;2022-10-31T06:59:29;8.60;99.90
32612;DHT22;19030;49.478;8.986;2022-10-31T07:01:48;8.60;99.90
32612;DHT22;19030;49.478;8.986;2022-10-31T07:03:49;8.70;99.90
32612;DHT22;19030;49.478;8.986;2022-10-31T07:05:50;8.90;99.90
32612;DHT22;19030;49.478;8.986;2022-10-31T07:07:55;9.00;99.90
32612;DHT22;19030;49.478;8.986;2022-10-31T07:09:56;9.10;99.90
32612;DHT22;19030;49.478;8.986;2022-10-31T07:12:12;9.30;99.90
32612;DHT22;19030;49.478;8.986;2022-10-31T07:14:23;9.60;99.90
32612;DHT22;19030;49.478;8.986;2022-10-31T07:16:24;9.90;99.90
32612;DHT22;19030;49.478;8.986;2022-10-31T07:18:25;10.20;99.90
32612;DHT22;19030;49.478;8.986;2022-10-31T07:20:27;10.30;99.90
32612;DHT22;19030;49.478;8.986;2022-10-31T07:22:37;10.50;99.90
32612;DHT22;19030;49.478;8.986;2022-10-31T07:24:41;10.80;99.90
32612;DHT22;19030;49.478;8.986;2022-10-31T07:27:00;11.00;99.90
32612;DHT22;19030;49.478;8.986;2022-10-31T07:29:00;11.20;99.90
32612;DHT22;19030;49.478;8.986;2022-10-31T07:31:02;11.50;99.90
32612;DHT22;19030;49.478;8.986;2022-10-31T07:33:05;11.80;99.90
32612;DHT22;19030;49.478;8.986;2022-10-31T07:35:34;12.20;99.90
32612;DHT22;19030;49.478;8.986;2022-10-31T07:37:35;12.40;99.90
32612;DHT22;19030;49.478;8.986;2022-10-31T07:39:36;12.50;99.90
32612;DHT22;19030;49.478;8.986;2022-10-31T07:41:37;12.50;99.90
32612;DHT22;19030;49.478;8.986;2022-10-31T07:43:37;12.50;99.90
32612;DHT22;19030;49.478;8.986;2022-10-31T07:45:58;12.50;99.90
32612;DHT22;19030;49.478;8.986;2022-10-31T07:48:17;12.50;99.90
32612;DHT22;19030;49.478;8.986;2022-10-31T07:50:36;12.60;99.90
32612;DHT22;19030;49.478;8.986;2022-10-31T07:55:12;12.70;99.90
32612;DHT22;19030;49.478;8.986;2022-10-31T07:57:13;12.80;99.90
32612;DHT22;19030;49.478;8.986;2022-10-31T07:59:13;12.90;99.90
32612;DHT22;19030;49.478;8.986;2022-10-31T08:01:14;13.00;99.90
32612;DHT22;19030;49.478;8.986;2022-10-31T08:03:22;13.30;99.90
32612;DHT22;19030;49.478;8.986;2022-10-31T08:05:42;13.60;99.90
32612;DHT22;19030;49.478;8.986;2022-10-31T08:08:03;13.80;99.90
32612;DHT22;19030;49.478;8.986;2022-10-31T08:10:05;13.80;99.90
32612;DHT22;19030;49.478;8.986;2022-10-31T08:12:06;13.90;99.90
32612;DHT22;19030;49.478;8.986;2022-10-31T08:14:08;14.10;99.90
32612;DHT22;19030;49.478;8.986;2022-10-31T08:16:09;14.30;99.90
32612;DHT22;19030;49.478;8.986;2022-10-31T08:18:17;14.60;99.90
32612;DHT22;19030;49.478;8.986;2022-10-31T08:20:18;15.20;99.90
32612;DHT22;19030;49.478;8.986;2022-10-31T08:22:20;15.80;99.90
32612;DHT22;19030;49.478;8.986;2022-10-31T08:24:24;16.50;99.90
32612;DHT22;19030;49.478;8.986;2022-10-31T08:26:25;17.40;99.90
32612;DHT22;19030;49.478;8.986;2022-10-31T08:28:27;18.20;99.90
32612;DHT22;19030;49.478;8.986;2022-10-31T08:30:31;18.70;99.90
32612;DHT22;19030;49.478;8.986;2022-10-31T08:33:05;19.20;98.50
32612;DHT22;19030;49.478;8.986;2022-10-31T08:35:35;19.60;97.00
32612;DHT22;19030;49.478;8.986;2022-10-31T08:37:55;20.10;93.90
32612;DHT22;19030;49.478;8.986;2022-10-31T08:39:58;20.30;92.10
32612;DHT22;19030;49.478;8.986;2022-10-31T08:41:59;20.30;91.00
32612;DHT22;19030;49.478;8.986;2022-10-31T08:43:59;20.30;91.00
32612;DHT22;19030;49.478;8.986;2022-10-31T08:46:00;20.80;88.30
32612;DHT22;19030;49.478;8.986;2022-10-31T08:48:05;21.30;85.10
32612;DHT22;19030;49.478;8.986;2022-10-31T08:50:07;21.60;83.30
32612;DHT22;19030;49.478;8.986;2022-10-31T08:52:08;21.80;80.60
32612;DHT22;19030;49.478;8.986;2022-10-31T08:54:13;21.90;78.10
32612;DHT22;19030;49.478;8.986;2022-10-31T08:56:29;22.60;75.60
32612;DHT22;19030;49.478;8.986;2022-10-31T08:58:30;23.20;71.30
32612;DHT22;19030;49.478;8.986;2022-10-31T09:00:35;23.70;68.20
32612;DHT22;19030;49.478;8.986;2022-10-31T09:02:58;24.00;65.90
32612;DHT22;19030;49.478;8.986;2022-10-31T09:04:59;24.10;63.60
32612;DHT22;19030;49.478;8.986;2022-10-31T09:07:00;24.20;61.10
32612;DHT22;19030;49.478;8.986;2022-10-31T09:09:00;24.20;61.10
32612;DHT22;19030;49.478;8.986;2022-10-31T09:11:02;24.30;59.70
32612;DHT22;19030;49.478;8.986;2022-10-31T09:13:28;24.60;59.60
32612;DHT22;19030;49.478;8.986;2022-10-31T09:16:00;25.10;58.60
32612;DHT22;19030;49.478;8.986;2022-10-31T09:18:01;24.80;57.50
32612;DHT22;19030;49.478;8.986;2022-10-31T09:20:11;24.50;58.50
32612;DHT22;19030;49.478;8.986;2022-10-31T09:22:12;24.30;59.10
32612;DHT22;19030;49.478;8.986;2022-10-31T09:24:14;24.50;58.50
32612;DHT22;19030;49.478;8.986;2022-10-31T09:26:16;24.70;58.10
32612;DHT22;19030;49.478;8.986;2022-10-31T09:28:29;25.30;56.70
32612;DHT22;19030;49.478;8.986;2022-10-31T09:30:35;25.80;55.20
32612;DHT22;19030;49.478;8.986;2022-10-31T09:32:36;26.10;54.30
32612;DHT22;19030;49.478;8.986;2022-10-31T09:34:39;26.20;53.80
32612;DHT22;19030;49.478;8.986;2022-10-31T09:36:44;26.40;53.90
32612;DHT22;19030;49.478;8.986;2022-10-31T09:38:51;26.70;53.30
32612;DHT22;19030;49.478;8.986;2022-10-31T09:40:57;27.10;53.00
32612;DHT22;19030;49.478;8.986;2022-10-31T09:43:11;27.30;51.70
32612;DHT22;19030;49.478;8.986;2022-10-31T09:45:30;27.10;51.10
32612;DHT22;19030;49.478;8.986;2022-10-31T09:47:38;27.10;52.10
32612;DHT22;19030;49.478;8.986;2022-10-31T09:50:18;27.40;51.60
32612;DHT22;19030;49.478;8.986;2022-10-31T09:52:32;27.20;50.90
32612;DHT22;19030;49.478;8.986;2022-10-31T09:54:44;26.90;51.40
32612;DHT22;19030;49.478;8.986;2022-10-31T09:56:46;26.60;52.80
32612;DHT22;19030;49.478;8.986;2022-10-31T09:58:56;26.40;52.70
32612;DHT22;19030;49.478;8.986;2022-10-31T10:01:00;26.30;53.30
32612;DHT22;19030;49.478;8.986;2022-10-31T10:05:31;26.00;52.80
32612;DHT22;19030;49.478;8.986;2022-10-31T10:18:03;25.00;56.50
32612;DHT22;19030;49.478;8.986;2022-10-31T10:22:47;25.30;56.20
32612;DHT22;19030;49.478;8.986;2022-10-31T10:29:47;24.50;57.50
32612;DHT22;19030;49.478;8.986;2022-10-31T10:31:51;24.20;57.80
32612;DHT22;19030;49.478;8.986;2022-10-31T10:40:39;22.70;63.80
32612;DHT22;19030;49.478;8.986;2022-10-31T10:42:40;22.60;64.80
32612;DHT22;19030;49.478;8.986;2022-10-31T10:44:59;22.50;65.50
32612;DHT22;19030;49.478;8.986;2022-10-31T10:47:19;22.50;65.80
32612;DHT22;19030;49.478;8.986;2022-10-31T10:49:52;22.40;66.60
32612;DHT22;19030;49.478;8.986;2022-10-31T11:00:00;21.80;70.30
32612;DHT22;19030;49.478;8.986;2022-10-31T11:02:01;21.60;70.50
32612;DHT22;19030;49.478;8.986;2022-10-31T11:04:05;21.70;72.00
32612;DHT22;19030;49.478;8.986;2022-10-31T11:06:21;21.60;71.60
32612;DHT22;19030;49.478;8.986;2022-10-31T11:08:33;21.50;72.80
32612;DHT22;19030;49.478;8.986;2022-10-31T11:10:35;21.50;73.80
32612;DHT22;19030;49.478;8.986;2022-10-31T11:12:35;21.40;73.20
32612;DHT22;19030;49.478;8.986;2022-10-31T11:14:47;21.20;73.80
32612;DHT22;19030;49.478;8.986;2022-10-31T11:16:54;21.00;75.50
32612;DHT22;19030;49.478;8.986;2022-10-31T11:19:25;21.00;76.60
32612;DHT22;19030;49.478;8.986;2022-10-31T11:21:28;20.90;77.70
32612;DHT22;19030;49.478;8.986;2022-10-31T11:23:30;20.80;78.30
32612;DHT22;19030;49.478;8.986;2022-10-31T11:25:31;20.50;78.80
32612;DHT22;19030;49.478;8.986;2022-10-31T11:27:32;20.30;80.70
32612;DHT22;19030;49.478;8.986;2022-10-31T11:29:32;20.10;82.80
32612;DHT22;19030;49.478;8.986;2022-10-31T11:31:36;19.90;83.40
32612;DHT22;19030;49.478;8.986;2022-10-31T11:35:42;19.70;86.60
32612;DHT22;19030;49.478;8.986;2022-10-31T11:37:45;19.60;88.00
32612;DHT22;19030;49.478;8.986;2022-10-31T11:39:53;19.50;90.20
32612;DHT22;19030;49.478;8.986;2022-10-31T11:41:54;19.50;90.20
32612;DHT22;19030;49.478;8.986;2022-10-31T11:43:56;19.60;90.40
32612;DHT22;19030;49.478;8.986;2022-10-31T11:45:58;19.60;90.60
32612;DHT22;19030;49.478;8.986;2022-10-31T11:47:59;19.70;90.90
32612;DHT22;19030;49.478;8.986;2022-10-31T11:50:08;19.60;90.90
32612;DHT22;19030;49.478;8.986;2022-10-31T11:52:25;19.60;91.50
32612;DHT22;19030;49.478;8.986;2022-10-31T11:54:41;19.60;91.50
32612;DHT22;19030;49.478;8.986;2022-10-31T11:56:42;19.60;91.80
32612;DHT22;19030;49.478;8.986;2022-10-31T11:58:43;19.60;92.30
32612;DHT22;19030;49.478;8.986;2022-10-31T12:00:52;19.60;92.40
32612;DHT22;19030;49.478;8.986;2022-10-31T12:05:21;19.50;93.20
32612;DHT22;19030;49.478;8.986;2022-10-31T12:07:23;19.50;93.10
32612;DHT22;19030;49.478;8.986;2022-10-31T12:09:27;19.60;94.10
32612;DHT22;19030;49.478;8.986;2022-10-31T12:16:40;19.70;93.10
32612;DHT22;19030;49.478;8.986;2022-10-31T12:18:56;19.60;93.20
32612;DHT22;19030;49.478;8.986;2022-10-31T12:23:49;19.60;93.90
32612;DHT22;19030;49.478;8.986;2022-10-31T12:28:02;19.90;94.00
32612;DHT22;19030;49.478;8.986;2022-10-31T12:32:21;19.90;94.70
32612;DHT22;19030;49.478;8.986;2022-10-31T12:35:01;20.00;94.20
32612;DHT22;19030;49.478;8.986;2022-10-31T12:39:24;20.10;94.30
32612;DHT22;19030;49.478;8.986;2022-10-31T12:41:45;20.00;93.90
32612;DHT22;19030;49.478;8.986;2022-10-31T12:45:59;19.90;94.20
32612;DHT22;19030;49.478;8.986;2022-10-31T12:53:21;19.60;95.30
32612;DHT22;19030;49.478;8.986;2022-10-31T12:57:53;19.10;96.60
32612;DHT22;19030;49.478;8.986;2022-10-31T13:00:11;19.00;97.30
32612;DHT22;19030;49.478;8.986;2022-10-31T13:02:18;18.90;98.30
32612;DHT22;19030;49.478;8.986;2022-10-31T13:06:35;18.70;99.40
32612;DHT22;19030;49.478;8.986;2022-10-31T13:08:41;18.70;99.90
32612;DHT22;19030;49.478;8.986;2022-10-31T13:10:57;18.70;99.90
32612;DHT22;19030;49.478;8.986;2022-10-31T13:13:13;18.70;99.90
32612;DHT22;19030;49.478;8.986;2022-10-31T13:15:30;18.60;99.90
32612;DHT22;19030;49.478;8.986;2022-10-31T13:17:40;18.50;99.90
32612;DHT22;19030;49.478;8.986;2022-10-31T13:19:44;18.50;99.90
32612;DHT22;19030;49.478;8.986;2022-10-31T13:21:53;18.60;99.90
32612;DHT22;19030;49.478;8.986;2022-10-31T13:23:58;18.70;99.90
32612;DHT22;19030;49.478;8.986;2022-10-31T13:26:08;18.90;99.90
32612;DHT22;19030;49.478;8.986;2022-10-31T13:28:33;19.00;99.90
32612;DHT22;19030;49.478;8.986;2022-10-31T13:30:40;19.10;99.90
32612;DHT22;19030;49.478;8.986;2022-10-31T13:34:47;19.50;99.90
32612;DHT22;19030;49.478;8.986;2022-10-31T13:37:00;19.70;99.90
32612;DHT22;19030;49.478;8.986;2022-10-31T13:39:16;19.80;99.90
32612;DHT22;19030;49.478;8.986;2022-10-31T13:46:25;19.70;99.90
32612;DHT22;19030;49.478;8.986;2022-10-31T13:48:33;19.60;99.90
32612;DHT22;19030;49.478;8.986;2022-10-31T13:50:34;19.60;99.90
32612;DHT22;19030;49.478;8.986;2022-10-31T13:52:35;19.40;99.90
32612;DHT22;19030;49.478;8.986;2022-10-31T13:56:39;19.20;99.90
32612;DHT22;19030;49.478;8.986;2022-10-31T13:58:53;19.20;99.90
32612;DHT22;19030;49.478;8.986;2022-10-31T14:03:18;19.30;99.90
32612;DHT22;19030;49.478;8.986;2022-10-31T14:05:51;19.40;99.90
32612;DHT22;19030;49.478;8.986;2022-10-31T14:07:53;19.50;99.90
32612;DHT22;19030;49.478;8.986;2022-10-31T14:12:44;19.80;99.90
32612;DHT22;19030;49.478;8.986;2022-10-31T14:14:49;20.00;99.90
32612;DHT22;19030;49.478;8.986;2022-10-31T14:16:57;20.00;99.90
32612;DHT22;19030;49.478;8.986;2022-10-31T14:19:06;20.00;99.90
32612;DHT22;19030;49.478;8.986;2022-10-31T14:23:38;19.90;99.90
32612;DHT22;19030;49.478;8.986;2022-10-31T14:25:40;19.80;99.90
32612;DHT22;19030;49.478;8.986;2022-10-31T14:27:46;19.80;99.90
32612;DHT22;19030;49.478;8.986;2022-10-31T14:29:47;19.70;99.90
32612;DHT22;19030;49.478;8.986;2022-10-31T14:32:04;19.70;99.90
32612;DHT22;19030;49.478;8.986;2022-10-31T14:34:33;19.70;99.90
32612;DHT22;19030;49.478;8.986;2022-10-31T14:39:21;19.60;99.90
32612;DHT22;19030;49.478;8.986;2022-10-31T14:44:23;19.60;99.90
32612;DHT22;19030;49.478;8.986;2022-10-31T14:46:44;19.60;99.90
32612;DHT22;19030;49.478;8.986;2022-10-31T14:51:41;19.50;99.90
32612;DHT22;19030;49.478;8.986;2022-10-31T14:53:50;19.30;99.90
32612;DHT22;19030;49.478;8.986;2022-10-31T14:55:56;19.20;99.90
32612;DHT22;19030;49.478;8.986;2022-10-31T14:58:04;19.00;99.90
32612;DHT22;19030;49.478;8.986;2022-10-31T15:00:16;18.80;99.90
32612;DHT22;19030;49.478;8.986;2022-10-31T15:02:31;18.60;99.90
32612;DHT22;19030;49.478;8.986;2022-10-31T15:04:35;18.30;99.90
32612;DHT22;19030;49.478;8.986;2022-10-31T15:06:50;18.10;99.90
32612;DHT22;19030;49.478;8.986;2022-10-31T15:08:53;17.90;99.90
32612;DHT22;19030;49.478;8.986;2022-10-31T15:10:54;17.70;99.90
32612;DHT22;19030;49.478;8.986;2022-10-31T15:12:55;17.50;99.90
32612;DHT22;19030;49.478;8.986;2022-10-31T15:14:56;17.30;99.90
32612;DHT22;19030;49.478;8.986;2022-10-31T15:17:01;17.20;99.90
32612;DHT22;19030;49.478;8.986;2022-10-31T15:19:05;17.10;99.90
32612;DHT22;19030;49.478;8.986;2022-10-31T15:21:07;17.00;99.90
32612;DHT22;19030;49.478;8.986;2022-10-31T15:23:11;16.90;99.90
32612;DHT22;19030;49.478;8.986;2022-10-31T15:25:21;16.80;99.90
32612;DHT22;19030;49.478;8.986;2022-10-31T15:27:23;16.60;99.90